createdAt,value
2022-11-23T00:01:17.699Z,88.20
2022-11-23T00:03:46.809Z,91.20
2022-11-23T00:06:15.101Z,90.00
2022-11-23T00:08:44.295Z,83.67
2022-11-23T00:11:12.921Z,84.53
2022-11-23T00:13:41.768Z,85.27
2022-11-23T00:18:59.629Z,89.53
2022-11-23T00:21:29.084Z,92.83
2022-11-23T00:23:57.394Z,90.93
2022-11-23T00:26:25.483Z,92.07
2022-11-23T00:28:53.693Z,94.87
2022-11-23T00:31:22.439Z,88.20
2022-11-23T00:33:51.742Z,92.83
2022-11-23T00:36:21.762Z,87.97
2022-11-23T00:38:51.084Z,84.27
2022-11-23T00:41:21.486Z,89.17
2022-11-23T00:43:50.117Z,87.87
2022-11-23T00:46:20.558Z,88.87
2022-11-23T00:48:50.067Z,87.03
2022-11-23T00:51:21.878Z,86.37
2022-11-23T00:53:51.360Z,84.90
2022-11-23T00:56:21.578Z,86.50
2022-11-23T00:58:50.707Z,86.40
2022-11-23T01:01:20.775Z,85.87
2022-11-23T01:03:50.314Z,90.47
2022-11-23T01:06:22.331Z,90.10
2022-11-23T01:08:51.786Z,89.33
2022-11-23T01:11:20.875Z,87.33
2022-11-23T01:13:49.674Z,86.43
2022-11-23T01:16:24.073Z,86.17
2022-11-23T01:18:54.545Z,87.57
2022-11-23T01:21:24.487Z,90.50
2022-11-23T01:23:52.913Z,88.37
2022-11-23T01:26:21.294Z,93.30
2022-11-23T01:28:50.134Z,95.40
2022-11-23T01:31:20.396Z,92.20
2022-11-23T01:33:48.739Z,89.27
2022-11-23T01:36:18.819Z,88.77
2022-11-23T01:38:49.526Z,91.87
2022-11-23T01:41:20.216Z,88.60
2022-11-23T01:43:48.794Z,86.73
2022-11-23T01:46:18.391Z,88.27
2022-11-23T01:48:50.122Z,91.23
2022-11-23T01:51:22.611Z,91.50
2022-11-23T01:53:56.779Z,86.00
2022-11-23T01:56:29.003Z,87.90
2022-11-23T01:58:59.948Z,99.33
2022-11-23T02:01:28.160Z,93.13
2022-11-23T02:04:00.145Z,93.27
2022-11-23T02:06:28.370Z,91.10
2022-11-23T02:08:58.095Z,86.00
2022-11-23T02:11:26.295Z,84.77
2022-11-23T02:13:54.414Z,90.70
2022-11-23T02:16:22.655Z,88.07
2022-11-23T02:18:53.104Z,88.07
2022-11-23T02:21:21.437Z,87.60
2022-11-23T02:23:56.605Z,86.57
2022-11-23T02:26:28.170Z,86.27
2022-11-23T02:29:00.138Z,87.67
2022-11-23T02:31:28.375Z,91.00
2022-11-23T02:33:56.462Z,88.87
2022-11-23T02:36:36.853Z,87.50
2022-11-23T02:39:10.004Z,93.30
2022-11-23T02:41:42.640Z,90.10
2022-11-23T02:44:24.448Z,95.83
2022-11-23T02:46:53.642Z,91.27
2022-11-23T02:49:21.769Z,88.17
2022-11-23T02:51:49.997Z,87.60
2022-11-23T02:54:18.075Z,90.47
2022-11-23T02:56:47.558Z,91.30
2022-11-23T02:59:15.604Z,89.60
2022-11-23T03:01:43.678Z,87.03
2022-11-23T03:04:11.794Z,84.53
2022-11-23T03:06:39.922Z,84.60
2022-11-23T03:09:08.234Z,85.20
2022-11-23T03:11:36.522Z,88.37
2022-11-23T03:14:06.234Z,86.63
2022-11-23T03:16:34.632Z,86.47
2022-11-23T03:19:03.092Z,86.87
2022-11-23T03:21:31.289Z,85.07
2022-11-23T03:23:59.373Z,85.93
2022-11-23T03:26:27.582Z,86.93
2022-11-23T03:28:55.756Z,86.00
2022-11-23T03:31:25.371Z,86.40
2022-11-23T03:33:53.488Z,84.50
2022-11-23T03:36:21.678Z,83.87
2022-11-23T03:38:49.775Z,84.07
2022-11-23T03:41:17.845Z,85.20
2022-11-23T03:43:45.939Z,79.90
2022-11-23T03:46:14.035Z,80.10
2022-11-23T03:48:43.502Z,78.27
2022-11-23T03:51:11.555Z,74.87
2022-11-23T03:53:39.791Z,78.83
2022-11-23T03:56:08.556Z,76.93
2022-11-23T03:58:36.676Z,77.40
2022-11-23T04:01:05.322Z,73.50
2022-11-23T04:03:33.518Z,70.23
2022-11-23T04:06:02.981Z,68.70
2022-11-23T04:08:30.984Z,70.77
2022-11-23T04:10:59.773Z,65.10
2022-11-23T04:13:27.978Z,66.57
2022-11-23T04:15:56.155Z,67.47
2022-11-23T04:18:24.311Z,66.47
2022-11-23T04:20:52.406Z,69.37
2022-11-23T04:23:21.857Z,72.63
2022-11-23T04:25:50.270Z,73.30
2022-11-23T04:28:18.390Z,74.83
2022-11-23T04:30:46.573Z,73.47
2022-11-23T04:33:14.638Z,74.27
2022-11-23T04:35:42.769Z,72.67
2022-11-23T04:38:10.869Z,72.10
2022-11-23T04:40:40.424Z,71.10
2022-11-23T04:43:09.585Z,72.93
2022-11-23T04:45:39.998Z,70.77
2022-11-23T04:48:08.332Z,71.67
2022-11-23T04:50:40.390Z,69.40
2022-11-23T04:53:09.216Z,70.13
2022-11-23T04:55:37.421Z,71.50
2022-11-23T04:58:06.829Z,70.83
2022-11-23T05:00:36.059Z,70.47
2022-11-23T05:03:04.278Z,71.20
2022-11-23T05:05:32.429Z,71.40
2022-11-23T05:08:00.672Z,69.20
2022-11-23T05:10:28.859Z,70.00
2022-11-23T05:12:56.975Z,68.37
2022-11-23T05:15:26.483Z,67.70
2022-11-23T05:17:58.973Z,67.73
2022-11-23T05:20:27.420Z,69.30
2022-11-23T05:22:55.598Z,70.70
2022-11-23T05:25:23.714Z,67.03
2022-11-23T05:27:52.063Z,68.47
2022-11-23T05:30:20.448Z,66.97
2022-11-23T05:32:50.116Z,69.10
2022-11-23T05:35:18.336Z,67.10
2022-11-23T05:37:46.564Z,68.90
2022-11-23T05:40:15.224Z,68.97
2022-11-23T05:42:43.218Z,67.73
2022-11-23T05:45:12.050Z,66.90
2022-11-23T05:47:40.295Z,66.10
2022-11-23T05:50:10.741Z,60.10
2022-11-23T05:52:38.781Z,62.87
2022-11-23T05:55:07.301Z,61.20
2022-11-23T05:57:35.454Z,58.90
2022-11-23T06:00:04.009Z,60.20
2022-11-23T06:02:35.631Z,59.90
2022-11-23T06:05:07.239Z,57.70
2022-11-23T06:07:37.117Z,56.50
2022-11-23T06:10:06.671Z,55.53
2022-11-23T06:12:34.946Z,54.23
2022-11-23T06:15:03.206Z,53.90
2022-11-23T06:17:31.304Z,51.80
2022-11-23T06:19:59.482Z,51.47
2022-11-23T06:22:27.660Z,51.00
2022-11-23T06:24:57.180Z,49.30
2022-11-23T06:27:25.321Z,49.03
2022-11-23T06:29:53.516Z,50.70
2022-11-23T06:32:21.631Z,49.73
2022-11-23T06:34:49.854Z,54.30
2022-11-23T06:37:18.006Z,49.80
2022-11-23T06:39:47.186Z,49.57
2022-11-23T06:42:37.682Z,49.17
2022-11-23T06:45:06.211Z,50.53
2022-11-23T06:47:34.580Z,50.80
2022-11-23T06:50:02.785Z,52.90
2022-11-23T06:52:30.939Z,53.40
2022-11-23T06:54:59.059Z,55.87
2022-11-23T06:57:28.523Z,56.50
2022-11-23T06:59:56.739Z,63.53
2022-11-23T07:02:24.960Z,59.97
2022-11-23T07:04:53.115Z,57.50
2022-11-23T07:07:21.319Z,60.60
2022-11-23T07:09:49.485Z,60.53
2022-11-23T07:12:20.547Z,60.30
2022-11-23T07:14:50.175Z,62.83
2022-11-23T07:17:18.271Z,61.53
2022-11-23T07:19:46.496Z,61.67
2022-11-23T07:22:14.710Z,64.40
2022-11-23T07:24:47.187Z,65.03
2022-11-23T07:27:18.293Z,63.77
2022-11-23T07:29:46.449Z,59.30
2022-11-23T07:32:15.992Z,58.17
2022-11-23T07:34:44.351Z,57.90
2022-11-23T07:37:12.442Z,56.40
2022-11-23T07:39:56.839Z,57.80
2022-11-23T07:42:38.164Z,59.17
2022-11-23T07:45:12.412Z,60.97
2022-11-23T07:47:41.839Z,59.57
2022-11-23T07:50:11.938Z,55.80
2022-11-23T07:52:40.985Z,55.67
2022-11-23T07:55:10.082Z,50.80
2022-11-23T07:57:38.147Z,52.50
2022-11-23T08:00:07.576Z,52.07
2022-11-23T08:02:35.672Z,54.20
2022-11-23T08:05:07.741Z,57.33
2022-11-23T08:07:39.814Z,53.50
2022-11-23T08:10:08.372Z,53.30
2022-11-23T08:12:36.715Z,51.40
2022-11-23T08:15:05.348Z,50.83
2022-11-23T08:17:33.655Z,51.37
2022-11-23T08:20:01.904Z,54.40
2022-11-23T08:22:31.297Z,52.10
2022-11-23T08:24:59.403Z,51.80
2022-11-23T08:27:27.602Z,49.90
2022-11-23T08:29:55.749Z,47.97
2022-11-23T08:32:24.056Z,43.63
2022-11-23T08:34:52.248Z,43.20
2022-11-23T08:37:20.435Z,43.33
2022-11-23T08:39:49.902Z,42.37
2022-11-23T08:42:18.279Z,40.60
2022-11-23T08:44:46.508Z,40.37
2022-11-23T08:47:14.653Z,38.63
2022-11-23T08:49:42.779Z,38.97
2022-11-23T08:52:11.288Z,40.53
2022-11-23T08:54:39.695Z,38.37
2022-11-23T08:57:09.287Z,35.43
2022-11-23T08:59:37.520Z,32.40
2022-11-23T09:02:05.775Z,32.13
2022-11-23T09:04:34.205Z,30.10
2022-11-23T09:07:04.426Z,28.00
2022-11-23T09:09:32.493Z,26.20
2022-11-23T09:12:00.629Z,25.70
2022-11-23T09:14:30.715Z,24.63
2022-11-23T09:17:01.239Z,25.10
2022-11-23T09:19:29.548Z,23.77
2022-11-23T09:21:58.016Z,24.70
2022-11-23T09:24:28.009Z,24.00
2022-11-23T09:26:57.436Z,22.97
2022-11-23T09:29:26.676Z,23.63
2022-11-23T09:31:56.290Z,22.20
2022-11-23T09:34:24.516Z,21.93
2022-11-23T09:36:52.617Z,22.27
2022-11-23T09:39:23.649Z,21.57
2022-11-23T09:42:22.798Z,23.70
2022-11-23T09:45:12.341Z,24.70
2022-11-23T09:48:04.634Z,22.80
2022-11-23T09:50:42.424Z,22.63
2022-11-23T09:53:15.618Z,22.67
2022-11-23T09:55:45.681Z,23.10
2022-11-23T09:58:17.293Z,22.70
2022-11-23T10:00:49.143Z,23.10
2022-11-23T10:03:19.573Z,22.60
2022-11-23T10:05:58.561Z,23.47
2022-11-23T10:08:37.299Z,22.77
2022-11-23T10:11:25.925Z,22.87
2022-11-23T10:14:03.722Z,22.30
2022-11-23T10:16:41.490Z,22.50
2022-11-23T10:19:19.071Z,21.97
2022-11-23T10:21:56.376Z,22.40
2022-11-23T10:24:28.630Z,22.43
2022-11-23T10:26:56.730Z,22.17
2022-11-23T10:29:30.679Z,21.77
2022-11-23T10:31:59.191Z,21.50
2022-11-23T10:34:48.012Z,20.70
2022-11-23T10:37:18.660Z,20.20
2022-11-23T10:39:47.202Z,19.60
2022-11-23T10:42:21.992Z,19.60
2022-11-23T10:44:52.465Z,19.80
2022-11-23T10:47:39.847Z,19.53
2022-11-23T10:50:30.064Z,19.60
2022-11-23T10:53:00.879Z,20.10
2022-11-23T10:55:31.461Z,19.40
2022-11-23T10:58:00.048Z,19.00
2022-11-23T11:00:31.291Z,18.57
2022-11-23T11:03:00.587Z,18.80
2022-11-23T11:06:07.486Z,18.83
2022-11-23T11:08:22.973Z,18.40
2022-11-23T11:10:59.952Z,18.77
2022-11-23T11:13:31.047Z,18.80
2022-11-23T11:16:01.427Z,18.50
2022-11-23T11:18:32.705Z,18.80
2022-11-23T11:21:05.694Z,18.43
2022-11-23T11:23:35.888Z,18.30
2022-11-23T11:26:07.426Z,18.47
2022-11-23T11:28:39.425Z,18.60
2022-11-23T11:31:24.749Z,18.37
2022-11-23T11:33:59.791Z,18.37
2022-11-23T11:36:37.420Z,18.20
2022-11-23T11:39:18.658Z,18.23
2022-11-23T11:41:50.096Z,18.27
2022-11-23T11:44:21.952Z,18.20
2022-11-23T11:46:55.724Z,18.37
2022-11-23T11:49:29.541Z,18.33
2022-11-23T11:52:05.822Z,18.13
2022-11-23T11:54:42.432Z,18.20
2022-11-23T11:57:20.385Z,17.93
2022-11-23T11:59:50.418Z,18.80
2022-11-23T12:02:25.877Z,18.40
2022-11-23T12:05:11.970Z,18.37
2022-11-23T12:07:47.285Z,18.27
2022-11-23T12:10:18.700Z,18.40
2022-11-23T12:12:48.343Z,18.10
2022-11-23T12:15:47.840Z,18.17
2022-11-23T12:18:26.002Z,17.97
2022-11-23T12:21:03.037Z,17.70
2022-11-23T12:23:43.184Z,17.57
2022-11-23T12:26:23.921Z,17.90
2022-11-23T12:29:19.369Z,17.80
2022-11-23T12:31:52.067Z,17.87
2022-11-23T12:34:41.201Z,17.77
2022-11-23T12:37:32.672Z,18.50
2022-11-23T12:40:31.868Z,21.93
2022-11-23T12:43:04.524Z,18.17
2022-11-23T12:46:11.169Z,18.47
2022-11-23T12:49:02.375Z,18.57
2022-11-23T12:51:41.554Z,18.60
2022-11-23T12:54:24.653Z,18.23
2022-11-23T12:57:03.902Z,18.30
2022-11-23T12:59:43.948Z,17.80
2022-11-23T13:02:26.612Z,18.07
2022-11-23T13:05:22.627Z,17.93
2022-11-23T13:08:05.657Z,18.40
2022-11-23T13:10:52.942Z,18.80
2022-11-23T13:13:43.928Z,18.50
2022-11-23T13:16:25.359Z,17.70
2022-11-23T13:19:09.960Z,17.57
2022-11-23T13:21:40.551Z,17.53
2022-11-23T13:24:27.686Z,17.73
2022-11-23T13:27:31.512Z,17.63
2022-11-23T13:30:11.025Z,17.67
2022-11-23T13:32:57.444Z,17.40
2022-11-23T13:35:56.863Z,17.27
2022-11-23T13:38:36.380Z,17.80
2022-11-23T13:41:04.823Z,17.57
2022-11-23T13:43:37.320Z,18.30
2022-11-23T13:46:26.776Z,18.83
2022-11-23T13:48:57.785Z,20.40
2022-11-23T13:51:28.654Z,22.10
2022-11-23T13:54:02.509Z,23.50
2022-11-23T13:56:36.538Z,24.87
2022-11-23T13:59:28.451Z,26.10
2022-11-23T14:02:29.259Z,29.03
2022-11-23T14:05:33.657Z,30.07
2022-11-23T14:08:04.714Z,30.43
2022-11-23T14:10:33.713Z,30.90
2022-11-23T14:13:05.704Z,32.47
2022-11-23T14:15:35.843Z,34.43
2022-11-23T14:18:41.107Z,33.30
2022-11-23T14:21:14.479Z,34.30
2022-11-23T14:24:15.552Z,37.73
2022-11-23T14:26:53.002Z,42.03
2022-11-23T14:29:53.890Z,44.17
2022-11-23T14:32:32.923Z,43.37
2022-11-23T14:35:17.804Z,43.70
2022-11-23T14:38:01.469Z,46.30
2022-11-23T14:40:39.004Z,44.47
2022-11-23T14:43:19.067Z,45.37
2022-11-23T14:45:48.624Z,45.03
2022-11-23T14:48:24.708Z,45.10
2022-11-23T14:50:58.459Z,48.23
2022-11-23T14:53:30.436Z,45.67
2022-11-23T14:56:00.603Z,44.97
2022-11-23T14:58:32.517Z,47.67
2022-11-23T15:01:02.075Z,48.43
2022-11-23T15:06:25.472Z,49.73
2022-11-23T15:09:01.008Z,51.30
2022-11-23T15:11:32.773Z,49.40
2022-11-23T15:14:03.880Z,49.17
2022-11-23T15:16:42.515Z,48.63
2022-11-23T15:19:27.180Z,48.47
2022-11-23T15:21:55.532Z,49.27
2022-11-23T15:24:25.431Z,51.50
2022-11-23T15:26:59.515Z,52.47
2022-11-23T15:29:35.612Z,52.67
2022-11-23T15:34:56.553Z,52.57
2022-11-23T15:37:26.100Z,51.73
2022-11-23T15:39:56.332Z,47.63
2022-11-23T15:42:26.803Z,48.07
2022-11-23T15:44:55.870Z,49.30
2022-11-23T15:47:28.417Z,50.23
2022-11-23T15:50:02.574Z,52.97
2022-11-23T15:52:35.919Z,57.30
2022-11-23T15:55:09.834Z,52.00
2022-11-23T15:57:41.262Z,53.63
2022-11-23T16:00:22.715Z,55.40
2022-11-23T16:02:51.864Z,55.63
2022-11-23T16:05:23.387Z,54.27
2022-11-23T16:07:54.401Z,55.77
2022-11-23T16:10:24.672Z,55.40
2022-11-23T16:12:55.825Z,57.60
2022-11-23T16:15:41.870Z,55.30
2022-11-23T16:18:23.299Z,56.87
2022-11-23T16:20:54.711Z,59.30
2022-11-23T16:23:25.849Z,58.57
2022-11-23T16:26:00.083Z,58.77
2022-11-23T16:28:31.880Z,56.53
2022-11-23T16:31:01.384Z,55.97
2022-11-23T16:33:30.454Z,54.33
2022-11-23T16:35:59.170Z,56.03
2022-11-23T16:38:27.797Z,57.10
2022-11-23T16:40:56.550Z,59.10
2022-11-23T16:43:25.310Z,59.20
2022-11-23T16:45:56.340Z,57.33
2022-11-23T16:48:43.709Z,59.78
2022-11-23T16:51:14.577Z,56.13
2022-11-23T16:54:11.939Z,57.85
2022-11-23T16:56:33.422Z,61.50
2022-11-23T16:59:02.138Z,60.63
2022-11-23T17:01:33.828Z,62.57
2022-11-23T17:04:02.465Z,62.80
2022-11-23T17:06:31.298Z,63.30
2022-11-23T17:09:06.401Z,61.37
2022-11-23T17:11:38.516Z,58.37
2022-11-23T17:14:08.023Z,55.77
2022-11-23T17:16:38.867Z,59.90
2022-11-23T17:19:12.030Z,59.83
2022-11-23T17:21:40.391Z,58.10
2022-11-23T17:24:09.068Z,57.20
2022-11-23T17:26:39.954Z,58.00
2022-11-23T17:29:14.218Z,55.30
2022-11-23T17:31:45.666Z,56.40
2022-11-23T17:34:14.779Z,56.30
2022-11-23T17:36:45.625Z,56.33
2022-11-23T17:39:19.194Z,57.17
2022-11-23T17:41:48.392Z,55.20
2022-11-23T17:44:17.873Z,57.63
2022-11-23T17:46:49.004Z,59.23
2022-11-23T17:49:21.158Z,57.83
2022-11-23T17:51:49.756Z,58.93
2022-11-23T17:54:18.305Z,58.63
2022-11-23T17:56:46.868Z,59.90
2022-11-23T17:59:15.782Z,61.67
2022-11-23T18:01:44.397Z,63.37
2022-11-23T18:04:14.532Z,61.30
2022-11-23T18:06:43.219Z,60.00
2022-11-23T18:09:12.322Z,61.27
2022-11-23T18:11:40.806Z,60.70
2022-11-23T18:14:09.436Z,59.93
2022-11-23T18:16:38.034Z,59.23
2022-11-23T18:19:06.573Z,62.03
2022-11-23T18:21:36.694Z,62.30
2022-11-23T18:24:05.799Z,63.83
2022-11-23T18:26:34.532Z,59.67
2022-11-23T18:29:04.062Z,64.43
2022-11-23T18:31:32.899Z,65.60
2022-11-23T18:34:02.866Z,64.47
2022-11-23T18:36:31.987Z,64.27
2022-11-23T18:39:02.249Z,66.35
2022-11-23T18:41:31.091Z,65.43
2022-11-23T18:43:59.569Z,63.50
2022-11-23T18:46:29.713Z,62.87
2022-11-23T18:48:58.741Z,64.43
2022-11-23T18:51:27.420Z,63.27
2022-11-23T18:53:56.117Z,66.00
2022-11-23T18:56:25.992Z,66.47
2022-11-23T18:58:55.736Z,65.87
2022-11-23T19:01:25.449Z,66.07
2022-11-23T19:03:54.626Z,65.93
2022-11-23T19:06:24.694Z,65.17
2022-11-23T19:08:54.714Z,68.23
2022-11-23T19:11:26.800Z,65.33
2022-11-23T19:13:57.820Z,66.00
2022-11-23T19:16:29.123Z,66.07
2022-11-23T19:18:59.064Z,66.03
2022-11-23T19:21:29.029Z,66.93
2022-11-23T19:23:58.510Z,65.73
2022-11-23T19:26:30.329Z,69.73
2022-11-23T19:28:59.593Z,70.17
2022-11-23T19:31:30.022Z,70.60
2022-11-23T19:34:01.137Z,69.13
2022-11-23T19:36:30.880Z,71.33
2022-11-23T19:39:00.777Z,75.60
2022-11-23T19:41:31.321Z,76.47
2022-11-23T19:44:01.339Z,73.70
2022-11-23T19:46:31.144Z,77.30
2022-11-23T19:49:00.381Z,82.43
2022-11-23T19:51:29.670Z,79.82
2022-11-23T19:54:01.157Z,81.27
2022-11-23T19:56:31.349Z,79.20
2022-11-23T19:59:01.264Z,78.53
2022-11-23T20:01:32.322Z,73.80
2022-11-23T20:04:08.707Z,76.30
2022-11-23T20:06:51.768Z,78.33
2022-11-23T20:09:21.296Z,76.10
2022-11-23T20:11:52.119Z,75.37
2022-11-23T20:14:21.235Z,74.50
2022-11-23T20:16:50.060Z,76.43
2022-11-23T20:19:18.604Z,80.03
2022-11-23T20:21:47.040Z,80.10
2022-11-23T20:24:15.854Z,76.90
2022-11-23T20:26:44.289Z,78.07
2022-11-23T20:29:14.845Z,74.83
2022-11-23T20:31:43.147Z,78.47
2022-11-23T20:34:16.700Z,72.70
2022-11-23T20:36:48.162Z,72.17
2022-11-23T20:39:16.245Z,74.07
2022-11-23T20:41:45.071Z,73.87
2022-11-23T20:44:15.458Z,76.77
2022-11-23T20:49:33.236Z,74.37
2022-11-23T20:52:01.903Z,77.63
2022-11-23T20:54:30.297Z,81.27
2022-11-23T20:57:00.300Z,79.10
2022-11-23T20:59:30.253Z,77.83
2022-11-23T21:01:58.497Z,72.90
2022-11-23T21:04:26.799Z,76.90
2022-11-23T21:06:55.107Z,80.50
2022-11-23T21:09:23.018Z,75.77
2022-11-23T21:12:08.777Z,77.77
2022-11-23T21:14:38.304Z,79.70
2022-11-23T21:17:06.663Z,76.93
2022-11-23T21:19:36.526Z,75.87
2022-11-23T21:22:06.828Z,78.50
2022-11-23T21:24:36.039Z,79.00
2022-11-23T21:27:05.214Z,77.63
2022-11-23T21:29:33.422Z,78.27
2022-11-23T21:32:02.890Z,76.90
2022-11-23T21:34:32.309Z,78.43
2022-11-23T21:37:01.129Z,79.37
2022-11-23T21:39:31.046Z,78.03
2022-11-23T21:41:59.260Z,81.27
2022-11-23T21:44:27.339Z,79.57
2022-11-23T21:46:55.718Z,77.00
2022-11-23T21:49:27.580Z,72.77
2022-11-23T21:51:55.773Z,78.23
2022-11-23T21:54:23.884Z,76.57
2022-11-23T21:56:52.175Z,77.60
2022-11-23T21:59:20.276Z,79.47
2022-11-23T22:01:48.577Z,79.93
2022-11-23T22:04:17.167Z,77.80
2022-11-23T22:06:46.798Z,81.17
2022-11-23T22:09:15.350Z,84.10
2022-11-23T22:11:44.861Z,84.13
2022-11-23T22:14:14.334Z,83.23
2022-11-23T22:16:44.499Z,86.17
2022-11-23T22:19:13.762Z,85.53
2022-11-23T22:21:43.351Z,83.23
2022-11-23T22:24:16.125Z,81.87
2022-11-23T22:26:44.856Z,80.67
2022-11-23T22:29:13.513Z,79.47
2022-11-23T22:31:43.536Z,78.00
2022-11-23T22:34:13.424Z,78.70
2022-11-23T22:36:41.888Z,78.80
2022-11-23T22:39:11.177Z,74.20
2022-11-23T22:41:41.052Z,85.43
2022-11-23T22:44:11.045Z,83.53
2022-11-23T22:46:40.212Z,82.77
2022-11-23T22:49:09.091Z,89.37
2022-11-23T22:51:37.620Z,82.70
2022-11-23T22:54:06.176Z,83.17
2022-11-23T22:56:34.755Z,82.57
2022-11-23T22:59:04.592Z,87.60
2022-11-23T23:01:33.359Z,84.03
2022-11-23T23:04:03.192Z,78.90
2022-11-23T23:06:35.021Z,82.83
2022-11-23T23:09:04.317Z,85.87
2022-11-23T23:11:33.813Z,88.87
2022-11-23T23:14:02.297Z,88.60
2022-11-23T23:16:32.169Z,81.23
2022-11-23T23:19:00.629Z,81.30
2022-11-23T23:21:30.152Z,84.80
2022-11-23T23:24:01.034Z,90.80
2022-11-23T23:26:30.144Z,85.87
2022-11-23T23:28:59.986Z,91.90
2022-11-23T23:31:29.993Z,90.33
2022-11-23T23:34:00.792Z,88.77
2022-11-23T23:36:29.658Z,87.90
2022-11-23T23:38:58.621Z,88.77
2022-11-23T23:41:26.907Z,87.93
2022-11-23T23:43:55.213Z,88.77
2022-11-23T23:46:23.596Z,88.73
2022-11-23T23:48:51.937Z,85.40
2022-11-23T23:51:23.368Z,82.97
2022-11-23T23:53:52.840Z,86.93
2022-11-23T23:56:23.324Z,89.33
2022-11-23T23:58:53.281Z,83.97
